createdAt,value
2022-08-21T00:03:21.776Z,4.28
2022-08-21T00:08:53.192Z,4.15
2022-08-21T00:14:24.585Z,4.00
2022-08-21T00:19:56.045Z,4.68
2022-08-21T00:25:27.430Z,4.38
2022-08-21T00:30:59.452Z,4.13
2022-08-21T00:36:31.038Z,4.15
2022-08-21T00:42:05.906Z,4.03
2022-08-21T00:47:37.467Z,4.18
2022-08-21T00:53:12.102Z,4.40
2022-08-21T00:58:44.255Z,4.32
2022-08-21T01:04:17.070Z,3.92
2022-08-21T01:09:49.409Z,4.70
2022-08-21T01:15:21.557Z,4.17
2022-08-21T01:21:14.292Z,4.38
2022-08-21T01:26:45.919Z,4.10
2022-08-21T01:32:19.378Z,4.20
2022-08-21T01:37:50.551Z,4.43
2022-08-21T01:43:23.863Z,4.20
2022-08-21T01:49:05.872Z,4.30
2022-08-21T01:54:37.608Z,4.07
2022-08-21T02:00:12.233Z,4.35
2022-08-21T02:05:44.190Z,4.57
2022-08-21T02:11:15.925Z,4.38
2022-08-21T02:16:47.595Z,4.28
2022-08-21T02:27:51.370Z,4.13
2022-08-21T02:33:25.040Z,4.43
2022-08-21T02:38:56.128Z,4.28
2022-08-21T02:44:30.076Z,4.90
2022-08-21T02:50:07.547Z,4.25
2022-08-21T03:01:11.339Z,4.13
2022-08-21T03:06:42.769Z,4.05
2022-08-21T03:12:14.068Z,4.40
2022-08-21T03:17:47.140Z,4.65
2022-08-21T03:28:51.880Z,4.70
2022-08-21T03:34:23.282Z,4.57
2022-08-21T03:39:55.568Z,4.20
2022-08-21T03:45:27.064Z,4.90
2022-08-21T03:50:58.465Z,4.78
2022-08-21T03:56:29.941Z,4.70
2022-08-21T04:02:02.988Z,4.82
2022-08-21T04:07:35.250Z,4.50
2022-08-21T04:13:08.184Z,4.97
2022-08-21T04:18:39.598Z,4.28
2022-08-21T04:24:11.612Z,4.93
2022-08-21T04:29:43.327Z,4.88
2022-08-21T04:35:16.020Z,4.50
2022-08-21T04:40:47.789Z,4.45
2022-08-21T04:46:20.106Z,4.18
2022-08-21T04:51:51.446Z,4.70
2022-08-21T04:57:22.444Z,4.90
2022-08-21T05:03:09.443Z,3.78
2022-08-21T05:08:41.647Z,4.28
2022-08-21T05:14:13.647Z,5.30
2022-08-21T05:19:44.564Z,4.63
2022-08-21T05:25:15.624Z,4.90
2022-08-21T05:30:48.166Z,5.07
2022-08-21T05:36:20.393Z,4.75
2022-08-21T05:41:51.362Z,4.55
2022-08-21T05:47:22.490Z,4.38
2022-08-21T05:52:54.029Z,4.65
2022-08-21T05:58:29.722Z,4.40
2022-08-21T06:04:01.587Z,4.47
2022-08-21T06:15:05.717Z,4.00
2022-08-21T06:20:37.022Z,4.10
2022-08-21T06:31:41.007Z,3.75
2022-08-21T06:37:12.462Z,4.10
2022-08-21T06:42:43.844Z,3.90
2022-08-21T06:48:19.204Z,3.65
2022-08-21T06:53:50.998Z,3.47
2022-08-21T06:59:22.258Z,3.70
2022-08-21T07:04:53.574Z,4.03
2022-08-21T07:10:28.616Z,3.17
2022-08-21T07:16:03.898Z,3.30
2022-08-21T07:21:35.689Z,3.40
2022-08-21T07:27:09.923Z,3.50
2022-08-21T07:32:41.633Z,3.53
2022-08-21T07:38:13.033Z,3.22
2022-08-21T07:43:46.211Z,3.20
2022-08-21T07:54:48.267Z,3.50
2022-08-21T08:00:23.618Z,2.75
2022-08-21T08:05:55.237Z,2.90
2022-08-21T08:11:26.403Z,3.20
2022-08-21T08:16:58.097Z,3.03
2022-08-21T08:22:29.650Z,2.97
2022-08-21T08:28:00.986Z,3.50
2022-08-21T08:33:32.359Z,3.33
2022-08-21T08:39:07.069Z,3.13
2022-08-21T08:44:43.971Z,2.60
2022-08-21T08:50:43.471Z,3.13
2022-08-21T08:56:15.423Z,2.55
2022-08-21T09:01:47.031Z,2.90
2022-08-21T09:07:33.609Z,2.78
2022-08-21T09:13:21.122Z,2.65
2022-08-21T09:19:29.611Z,2.70
2022-08-21T09:25:09.961Z,2.65
2022-08-21T09:30:42.214Z,2.42
2022-08-21T09:36:13.329Z,2.55
2022-08-21T09:41:44.353Z,2.50
2022-08-21T09:47:21.901Z,2.22
2022-08-21T09:52:59.986Z,2.88
2022-08-21T09:58:35.874Z,2.40
2022-08-21T10:04:10.775Z,2.70
2022-08-21T10:09:43.084Z,2.10
2022-08-21T10:15:25.219Z,2.30
2022-08-21T10:21:03.578Z,2.22
2022-08-21T10:26:59.229Z,2.40
2022-08-21T10:32:39.008Z,2.28
2022-08-21T10:38:39.200Z,2.10
2022-08-21T10:44:16.553Z,2.42
2022-08-21T10:50:19.281Z,2.03
2022-08-21T10:55:58.298Z,2.15
2022-08-21T11:01:35.448Z,2.30
2022-08-21T11:07:34.668Z,2.20
2022-08-21T11:13:13.174Z,2.15
2022-08-21T11:19:14.270Z,2.20
2022-08-21T11:25:02.277Z,1.75
2022-08-21T11:31:00.981Z,2.13
2022-08-21T11:36:38.434Z,1.88
2022-08-21T11:42:45.656Z,2.20
2022-08-21T11:48:53.945Z,2.20
2022-08-21T11:54:50.355Z,2.20
2022-08-21T12:00:36.174Z,2.35
2022-08-21T12:06:13.949Z,2.17
2022-08-21T12:12:26.426Z,1.90
2022-08-21T12:18:21.348Z,2.30
2022-08-21T12:24:15.749Z,2.53
2022-08-21T12:29:49.525Z,2.00
2022-08-21T12:35:25.505Z,2.33
2022-08-21T12:41:04.508Z,2.10
2022-08-21T12:46:41.255Z,2.03
2022-08-21T12:52:12.264Z,2.30
2022-08-21T12:57:43.793Z,2.20
2022-08-21T13:03:16.177Z,2.33
2022-08-21T13:08:49.172Z,2.30
2022-08-21T13:14:32.212Z,2.08
2022-08-21T13:25:38.779Z,2.50
2022-08-21T13:31:12.043Z,2.13
2022-08-21T13:36:44.591Z,2.30
2022-08-21T13:42:15.838Z,2.40
2022-08-21T13:47:48.918Z,2.30
2022-08-21T13:53:29.553Z,2.53
2022-08-21T13:59:02.999Z,2.60
2022-08-21T14:04:53.016Z,2.58
2022-08-21T14:10:27.722Z,2.45
2022-08-21T14:16:01.094Z,2.53
2022-08-21T14:21:38.274Z,2.70
2022-08-21T14:27:10.205Z,2.53
2022-08-21T14:32:44.892Z,2.60
2022-08-21T14:38:23.450Z,2.55
2022-08-21T14:44:06.110Z,2.55
2022-08-21T14:49:41.109Z,2.70
2022-08-21T14:55:15.243Z,3.10
2022-08-21T15:00:46.492Z,2.67
2022-08-21T15:06:19.103Z,2.40
2022-08-21T15:11:50.565Z,2.70
2022-08-21T15:17:21.773Z,2.92
2022-08-21T15:22:54.133Z,2.70
2022-08-21T15:28:25.853Z,2.63
2022-08-21T15:34:03.697Z,2.47
2022-08-21T15:39:37.453Z,2.70
2022-08-21T15:45:12.494Z,2.65
2022-08-21T15:50:44.011Z,2.50
2022-08-21T15:56:28.258Z,2.38
2022-08-21T16:01:59.795Z,2.60
2022-08-21T16:07:30.846Z,2.50
2022-08-21T16:13:04.107Z,2.40
2022-08-21T16:18:35.023Z,2.42
2022-08-21T16:24:06.274Z,2.33
2022-08-21T16:29:38.074Z,2.50
2022-08-21T16:35:13.993Z,2.28
2022-08-21T16:40:45.775Z,2.50
2022-08-21T16:46:17.832Z,3.00
2022-08-21T16:51:49.177Z,2.50
2022-08-21T16:57:20.401Z,2.55
2022-08-21T17:02:54.201Z,2.22
2022-08-21T17:08:25.570Z,2.00
2022-08-21T17:13:58.206Z,2.30
2022-08-21T17:19:29.690Z,2.25
2022-08-21T17:25:01.011Z,2.50
2022-08-21T17:30:32.805Z,2.50
2022-08-21T17:36:05.292Z,2.22
2022-08-21T17:41:36.910Z,2.40
2022-08-21T17:47:09.015Z,2.50
2022-08-21T17:52:40.687Z,1.90
2022-08-21T17:58:13.630Z,2.50
2022-08-21T18:03:46.590Z,2.10
2022-08-21T18:09:18.650Z,2.20
2022-08-21T18:14:50.602Z,2.17
2022-08-21T18:20:24.077Z,2.00
2022-08-21T18:25:57.504Z,2.00
2022-08-21T18:31:30.716Z,2.13
2022-08-21T18:37:02.694Z,2.03
2022-08-21T18:42:38.975Z,2.30
2022-08-21T18:48:11.843Z,2.13
2022-08-21T18:53:45.089Z,2.45
2022-08-21T18:59:32.375Z,1.85
2022-08-21T19:05:05.894Z,2.40
2022-08-21T19:10:43.856Z,1.90
2022-08-21T19:16:17.574Z,2.63
2022-08-21T19:21:49.497Z,1.95
2022-08-21T19:27:21.120Z,2.67
2022-08-21T19:32:54.750Z,3.05
2022-08-21T19:38:26.426Z,1.90
2022-08-21T19:44:00.445Z,1.98
2022-08-21T19:49:34.877Z,2.17
2022-08-21T20:00:38.833Z,2.22
2022-08-21T20:06:19.006Z,2.35
2022-08-21T20:11:52.781Z,1.98
2022-08-21T20:17:25.991Z,2.10
2022-08-21T20:22:57.004Z,1.93
2022-08-21T20:28:29.524Z,2.50
2022-08-21T20:34:02.523Z,2.35
2022-08-21T20:39:36.384Z,2.13
2022-08-21T20:45:09.163Z,1.63
2022-08-21T20:50:48.236Z,1.90
2022-08-21T20:56:34.968Z,2.17
2022-08-21T21:02:12.795Z,2.42
2022-08-21T21:07:43.668Z,2.15
2022-08-21T21:13:28.366Z,2.15
2022-08-21T21:19:03.777Z,2.08
2022-08-21T21:24:41.768Z,2.00
2022-08-21T21:30:46.502Z,1.73
2022-08-21T21:36:56.041Z,2.50
2022-08-21T21:42:38.057Z,2.22
2022-08-21T21:48:42.683Z,1.90
2022-08-21T21:55:02.966Z,1.73
2022-08-21T22:00:42.722Z,2.15
2022-08-21T22:06:44.836Z,2.08
2022-08-21T22:12:31.525Z,1.85
2022-08-21T22:18:16.272Z,1.98
2022-08-21T22:23:53.163Z,1.83
2022-08-21T22:29:24.415Z,2.72
2022-08-21T22:35:16.889Z,1.83
2022-08-21T22:40:48.334Z,1.65
2022-08-21T22:46:47.119Z,1.85
2022-08-21T22:52:27.372Z,1.65
2022-08-21T22:58:11.699Z,1.80
2022-08-21T23:03:54.843Z,1.73
2022-08-21T23:09:29.808Z,1.85
2022-08-21T23:15:07.539Z,1.77
2022-08-21T23:20:56.122Z,2.03
2022-08-21T23:27:07.840Z,2.10
2022-08-21T23:33:00.961Z,1.65
2022-08-21T23:38:51.471Z,1.75
2022-08-21T23:44:41.075Z,1.50
2022-08-21T23:50:17.762Z,1.70
2022-08-21T23:55:53.334Z,1.63
